sensor_id;sensor_type;location;lat;lon;timestamp;pressure;altitude;pressure_sealevel;temperature;humidity
63088;BME280;49173;43.164;27.786;2022-12-18T00:02:04;101167.06;;;11.43;79.24
63088;BME280;49173;43.164;27.786;2022-12-18T00:04:30;101176.00;;;11.44;79.00
63088;BME280;49173;43.164;27.786;2022-12-18T00:06:56;101174.38;;;11.40;78.81
63088;BME280;49173;43.164;27.786;2022-12-18T00:09:22;101174.38;;;11.40;79.37
63088;BME280;49173;43.164;27.786;2022-12-18T00:11:48;101181.59;;;11.39;79.55
63088;BME280;49173;43.164;27.786;2022-12-18T00:14:14;101185.13;;;11.40;79.32
63088;BME280;49173;43.164;27.786;2022-12-18T00:16:43;101192.41;;;11.38;78.78
63088;BME280;49173;43.164;27.786;2022-12-18T00:19:13;101188.97;;;11.34;79.29
63088;BME280;49173;43.164;27.786;2022-12-18T00:21:39;101186.28;;;11.34;79.17
63088;BME280;49173;43.164;27.786;2022-12-18T00:24:05;101191.66;;;11.34;79.05
63088;BME280;49173;43.164;27.786;2022-12-18T00:26:32;101200.66;;;11.33;79.02
63088;BME280;49173;43.164;27.786;2022-12-18T00:29:01;101224.94;;;11.32;78.87
63088;BME280;49173;43.164;27.786;2022-12-18T00:31:27;101218.75;;;11.30;78.91
63088;BME280;49173;43.164;27.786;2022-12-18T00:33:55;101216.94;;;11.30;78.98
63088;BME280;49173;43.164;27.786;2022-12-18T00:36:26;101220.56;;;11.29;79.16
63088;BME280;49173;43.164;27.786;2022-12-18T00:38:54;101215.19;;;11.29;78.55
63088;BME280;49173;43.164;27.786;2022-12-18T00:41:21;101211.63;;;11.28;78.75
63088;BME280;49173;43.164;27.786;2022-12-18T00:44:08;101216.16;;;11.28;78.62
63088;BME280;49173;43.164;27.786;2022-12-18T00:46:35;101217.13;;;11.25;78.39
63088;BME280;49173;43.164;27.786;2022-12-18T00:49:01;101228.97;;;11.21;77.89
63088;BME280;49173;43.164;27.786;2022-12-18T00:51:26;101222.84;;;11.18;77.48
63088;BME280;49173;43.164;27.786;2022-12-18T00:53:52;101228.28;;;11.16;77.45
63088;BME280;49173;43.164;27.786;2022-12-18T00:56:18;101224.72;;;11.16;77.85
63088;BME280;49173;43.164;27.786;2022-12-18T00:58:44;101218.50;;;11.15;77.67
63088;BME280;49173;43.164;27.786;2022-12-18T01:01:10;101232.78;;;11.16;77.37
63088;BME280;49173;43.164;27.786;2022-12-18T01:03:35;101231.09;;;11.13;77.62
63088;BME280;49173;43.164;27.786;2022-12-18T01:06:08;101228.38;;;11.15;78.24
63088;BME280;49173;43.164;27.786;2022-12-18T01:08:35;101232.00;;;11.14;78.18
63088;BME280;49173;43.164;27.786;2022-12-18T01:11:06;101237.41;;;11.12;78.07
63088;BME280;49173;43.164;27.786;2022-12-18T01:13:33;101245.47;;;11.12;77.90
63088;BME280;49173;43.164;27.786;2022-12-18T01:15:58;101239.38;;;11.09;77.67
63088;BME280;49173;43.164;27.786;2022-12-18T01:18:24;101251.94;;;11.08;77.46
63088;BME280;49173;43.164;27.786;2022-12-18T01:20:50;101255.56;;;11.07;77.24
63088;BME280;49173;43.164;27.786;2022-12-18T01:23:16;101252.13;;;11.04;77.34
63088;BME280;49173;43.164;27.786;2022-12-18T01:25:41;101248.50;;;11.05;77.94
63088;BME280;49173;43.164;27.786;2022-12-18T01:28:07;101250.44;;;11.01;77.76
63088;BME280;49173;43.164;27.786;2022-12-18T01:30:33;101252.53;;;10.94;78.42
63088;BME280;49173;43.164;27.786;2022-12-18T01:32:59;101254.25;;;10.95;78.18
63088;BME280;49173;43.164;27.786;2022-12-18T01:35:24;101253.50;;;10.92;78.62
63088;BME280;49173;43.164;27.786;2022-12-18T01:37:54;101257.28;;;10.88;78.17
63088;BME280;49173;43.164;27.786;2022-12-18T01:40:20;101258.41;;;10.82;78.86
63088;BME280;49173;43.164;27.786;2022-12-18T01:42:50;101259.28;;;10.83;78.56
63088;BME280;49173;43.164;27.786;2022-12-18T01:45:49;101275.28;;;10.86;78.50
63088;BME280;49173;43.164;27.786;2022-12-18T01:48:09;101269.94;;;10.84;78.14
63088;BME280;49173;43.164;27.786;2022-12-18T01:50:41;101277.00;;;10.87;77.85
63088;BME280;49173;43.164;27.786;2022-12-18T01:55:43;101264.38;;;10.89;77.29
63088;BME280;49173;43.164;27.786;2022-12-18T01:58:10;101265.25;;;10.89;77.22
63088;BME280;49173;43.164;27.786;2022-12-18T02:00:36;101274.19;;;10.90;77.48
63088;BME280;49173;43.164;27.786;2022-12-18T02:03:02;101282.31;;;10.88;77.07
63088;BME280;49173;43.164;27.786;2022-12-18T02:05:48;101281.38;;;10.89;77.09
63088;BME280;49173;43.164;27.786;2022-12-18T02:08:25;101286.03;;;10.86;76.93
63088;BME280;49173;43.164;27.786;2022-12-18T02:13:46;101273.63;;;10.82;76.26
63088;BME280;49173;43.164;27.786;2022-12-18T02:16:20;101278.13;;;10.81;77.03
63088;BME280;49173;43.164;27.786;2022-12-18T02:18:52;101279.00;;;10.82;77.62
63088;BME280;49173;43.164;27.786;2022-12-18T02:24:24;101282.50;;;10.84;77.14
63088;BME280;49173;43.164;27.786;2022-12-18T02:26:58;101290.69;;;10.81;76.43
63088;BME280;49173;43.164;27.786;2022-12-18T02:29:33;101293.06;;;10.66;76.22
63088;BME280;49173;43.164;27.786;2022-12-18T02:32:00;101310.91;;;10.67;75.86
63088;BME280;49173;43.164;27.786;2022-12-18T02:34:30;101303.75;;;10.68;76.46
63088;BME280;49173;43.164;27.786;2022-12-18T02:36:58;101307.38;;;10.67;76.15
63088;BME280;49173;43.164;27.786;2022-12-18T02:39:26;101322.59;;;10.66;76.42
63088;BME280;49173;43.164;27.786;2022-12-18T02:41:54;101328.06;;;10.63;76.72
63088;BME280;49173;43.164;27.786;2022-12-18T02:44:20;101342.44;;;10.62;76.92
63088;BME280;49173;43.164;27.786;2022-12-18T02:46:49;101354.03;;;10.63;77.12
63088;BME280;49173;43.164;27.786;2022-12-18T02:57:40;101346.00;;;10.63;77.50
63088;BME280;49173;43.164;27.786;2022-12-18T03:00:35;101344.16;;;10.65;76.07
63088;BME280;49173;43.164;27.786;2022-12-18T03:05:56;101342.44;;;10.62;76.61
63088;BME280;49173;43.164;27.786;2022-12-18T03:08:29;101337.06;;;10.62;77.25
63088;BME280;49173;43.164;27.786;2022-12-18T03:11:08;101333.56;;;10.60;76.75
63088;BME280;49173;43.164;27.786;2022-12-18T03:13:48;101332.81;;;10.57;75.76
63088;BME280;49173;43.164;27.786;2022-12-18T03:16:22;101329.31;;;10.55;76.25
63088;BME280;49173;43.164;27.786;2022-12-18T03:18:55;101321.25;;;10.55;75.68
63088;BME280;49173;43.164;27.786;2022-12-18T03:21:29;101327.81;;;10.48;75.61
63088;BME280;49173;43.164;27.786;2022-12-18T03:23:58;101327.06;;;10.44;75.86
63088;BME280;49173;43.164;27.786;2022-12-18T03:26:26;101345.16;;;10.39;75.46
63088;BME280;49173;43.164;27.786;2022-12-18T03:28:59;101326.66;;;10.31;75.13
63088;BME280;49173;43.164;27.786;2022-12-18T03:31:28;101341.75;;;10.34;75.87
63088;BME280;49173;43.164;27.786;2022-12-18T03:34:02;101344.44;;;10.34;76.60
63088;BME280;49173;43.164;27.786;2022-12-18T03:36:29;101338.97;;;10.37;76.47
63088;BME280;49173;43.164;27.786;2022-12-18T03:38:57;101347.34;;;10.28;75.10
63088;BME280;49173;43.164;27.786;2022-12-18T03:41:45;101357.47;;;10.19;75.00
63088;BME280;49173;43.164;27.786;2022-12-18T03:50:18;101379.00;;;10.18;76.23
63088;BME280;49173;43.164;27.786;2022-12-18T03:53:10;101378.00;;;10.21;76.94
63088;BME280;49173;43.164;27.786;2022-12-18T03:55:39;101383.59;;;10.14;76.11
63088;BME280;49173;43.164;27.786;2022-12-18T03:58:07;101390.59;;;10.18;77.78
63088;BME280;49173;43.164;27.786;2022-12-18T04:00:34;101390.53;;;10.20;76.72
63088;BME280;49173;43.164;27.786;2022-12-18T04:03:01;101399.59;;;10.17;76.55
63088;BME280;49173;43.164;27.786;2022-12-18T04:05:30;101396.72;;;10.24;76.82
63088;BME280;49173;43.164;27.786;2022-12-18T04:07:57;101409.19;;;10.25;76.80
63088;BME280;49173;43.164;27.786;2022-12-18T04:10:23;101416.31;;;10.26;76.61
63088;BME280;49173;43.164;27.786;2022-12-18T04:12:49;101411.88;;;10.25;76.24
63088;BME280;49173;43.164;27.786;2022-12-18T04:15:15;101421.59;;;10.27;76.41
63088;BME280;49173;43.164;27.786;2022-12-18T04:17:47;101430.59;;;10.26;76.73
63088;BME280;49173;43.164;27.786;2022-12-18T04:20:14;101444.78;;;10.30;76.87
63088;BME280;49173;43.164;27.786;2022-12-18T04:22:40;101444.00;;;10.26;75.96
63088;BME280;49173;43.164;27.786;2022-12-18T04:25:05;101459.28;;;10.24;76.57
63088;BME280;49173;43.164;27.786;2022-12-18T04:27:31;101461.91;;;10.26;76.48
63088;BME280;49173;43.164;27.786;2022-12-18T04:29:57;101461.78;;;10.29;76.40
63088;BME280;49173;43.164;27.786;2022-12-18T04:32:23;101466.41;;;10.25;76.12
63088;BME280;49173;43.164;27.786;2022-12-18T04:34:48;101470.84;;;10.26;76.42
63088;BME280;49173;43.164;27.786;2022-12-18T04:37:14;101474.47;;;10.25;76.23
63088;BME280;49173;43.164;27.786;2022-12-18T04:39:40;101481.69;;;10.23;76.48
63088;BME280;49173;43.164;27.786;2022-12-18T04:42:06;101482.63;;;10.21;76.94
63088;BME280;49173;43.164;27.786;2022-12-18T04:44:31;101489.75;;;10.23;77.12
63088;BME280;49173;43.164;27.786;2022-12-18T04:46:57;101489.75;;;10.22;77.04
63088;BME280;49173;43.164;27.786;2022-12-18T04:49:23;101495.09;;;10.22;76.87
63088;BME280;49173;43.164;27.786;2022-12-18T04:51:48;101488.88;;;10.23;76.55
63088;BME280;49173;43.164;27.786;2022-12-18T04:54:14;101496.00;;;10.24;77.06
63088;BME280;49173;43.164;27.786;2022-12-18T04:56:40;101505.22;;;10.13;76.34
63088;BME280;49173;43.164;27.786;2022-12-18T04:59:05;101505.16;;;9.90;75.71
63088;BME280;49173;43.164;27.786;2022-12-18T05:01:31;101518.13;;;9.49;73.68
63088;BME280;49173;43.164;27.786;2022-12-18T05:03:57;101518.09;;;9.21;75.22
63088;BME280;49173;43.164;27.786;2022-12-18T05:06:22;101520.50;;;9.02;74.91
63088;BME280;49173;43.164;27.786;2022-12-18T05:08:48;101511.06;;;8.89;75.83
63088;BME280;49173;43.164;27.786;2022-12-18T05:11:14;101524.84;;;8.75;75.81
63088;BME280;49173;43.164;27.786;2022-12-18T05:13:42;101522.34;;;8.69;76.07
63088;BME280;49173;43.164;27.786;2022-12-18T05:16:08;101529.72;;;8.61;75.01
63088;BME280;49173;43.164;27.786;2022-12-18T05:18:34;101552.00;;;8.62;74.77
63088;BME280;49173;43.164;27.786;2022-12-18T05:21:00;101554.75;;;8.59;75.21
63088;BME280;49173;43.164;27.786;2022-12-18T05:23:26;101562.13;;;8.50;74.77
63088;BME280;49173;43.164;27.786;2022-12-18T05:25:53;101572.81;;;8.50;75.04
63088;BME280;49173;43.164;27.786;2022-12-18T05:28:20;101581.00;;;8.44;74.74
63088;BME280;49173;43.164;27.786;2022-12-18T05:30:57;101579.13;;;8.48;75.87
63088;BME280;49173;43.164;27.786;2022-12-18T05:33:25;101587.31;;;8.42;74.68
63088;BME280;49173;43.164;27.786;2022-12-18T05:35:56;101604.34;;;8.38;75.90
63088;BME280;49173;43.164;27.786;2022-12-18T05:38:24;101606.16;;;8.39;75.32
63088;BME280;49173;43.164;27.786;2022-12-18T05:40:51;101605.31;;;8.35;74.59
63088;BME280;49173;43.164;27.786;2022-12-18T05:43:18;101607.13;;;8.33;75.94
63088;BME280;49173;43.164;27.786;2022-12-18T05:45:45;101611.03;;;8.20;75.09
63088;BME280;49173;43.164;27.786;2022-12-18T05:48:11;101604.31;;;8.04;74.84
63088;BME280;49173;43.164;27.786;2022-12-18T05:50:38;101616.84;;;8.02;75.98
63088;BME280;49173;43.164;27.786;2022-12-18T05:53:04;101616.97;;;7.95;75.56
63088;BME280;49173;43.164;27.786;2022-12-18T05:55:35;101636.00;;;7.83;75.04
63088;BME280;49173;43.164;27.786;2022-12-18T05:58:01;101640.38;;;7.86;75.83
63088;BME280;49173;43.164;27.786;2022-12-18T06:00:27;101638.72;;;7.80;75.59
63088;BME280;49173;43.164;27.786;2022-12-18T06:02:53;101654.91;;;7.74;75.80
63088;BME280;49173;43.164;27.786;2022-12-18T06:05:18;101674.47;;;7.76;75.96
63088;BME280;49173;43.164;27.786;2022-12-18T06:07:44;101680.69;;;7.77;75.58
63088;BME280;49173;43.164;27.786;2022-12-18T06:10:10;101685.13;;;7.78;74.86
63088;BME280;49173;43.164;27.786;2022-12-18T06:12:37;101699.56;;;7.69;74.55
63088;BME280;49173;43.164;27.786;2022-12-18T06:15:03;101716.78;;;7.56;75.08
63088;BME280;49173;43.164;27.786;2022-12-18T06:17:30;101727.50;;;7.54;74.56
63088;BME280;49173;43.164;27.786;2022-12-18T06:20:06;101739.94;;;7.55;74.90
63088;BME280;49173;43.164;27.786;2022-12-18T06:22:58;101748.88;;;7.53;74.79
63088;BME280;49173;43.164;27.786;2022-12-18T06:25:23;101749.75;;;7.53;74.93
63088;BME280;49173;43.164;27.786;2022-12-18T06:27:51;101760.47;;;7.52;74.94
63088;BME280;49173;43.164;27.786;2022-12-18T06:30:16;101767.56;;;7.54;74.77
63088;BME280;49173;43.164;27.786;2022-12-18T06:32:42;101772.00;;;7.55;74.60
63088;BME280;49173;43.164;27.786;2022-12-18T06:35:08;101781.59;;;7.64;74.35
63088;BME280;49173;43.164;27.786;2022-12-18T06:37:34;101776.06;;;7.73;74.79
63088;BME280;49173;43.164;27.786;2022-12-18T06:40:00;101780.41;;;7.79;73.71
63088;BME280;49173;43.164;27.786;2022-12-18T06:42:26;101792.06;;;7.75;73.08
63088;BME280;49173;43.164;27.786;2022-12-18T06:44:52;101802.03;;;7.66;72.64
63088;BME280;49173;43.164;27.786;2022-12-18T06:47:18;101803.03;;;7.61;71.94
63088;BME280;49173;43.164;27.786;2022-12-18T06:49:44;101821.13;;;7.48;71.60
63088;BME280;49173;43.164;27.786;2022-12-18T06:52:09;101806.94;;;7.43;73.84
63088;BME280;49173;43.164;27.786;2022-12-18T06:54:35;101817.66;;;7.41;71.46
63088;BME280;49173;43.164;27.786;2022-12-18T06:57:04;101818.63;;;7.37;71.80
63088;BME280;49173;43.164;27.786;2022-12-18T06:59:29;101816.94;;;7.33;71.93
63088;BME280;49173;43.164;27.786;2022-12-18T07:01:55;101837.53;;;7.27;72.04
63088;BME280;49173;43.164;27.786;2022-12-18T07:04:21;101835.88;;;7.18;72.00
63088;BME280;49173;43.164;27.786;2022-12-18T07:06:47;101829.66;;;7.18;72.06
63088;BME280;49173;43.164;27.786;2022-12-18T07:09:12;101836.00;;;7.10;73.96
63088;BME280;49173;43.164;27.786;2022-12-18T07:11:38;101846.66;;;7.13;73.34
63088;BME280;49173;43.164;27.786;2022-12-18T07:14:04;101849.16;;;7.23;72.23
63088;BME280;49173;43.164;27.786;2022-12-18T07:16:29;101844.75;;;7.20;73.19
63088;BME280;49173;43.164;27.786;2022-12-18T07:18:55;101850.06;;;7.22;72.63
63088;BME280;49173;43.164;27.786;2022-12-18T07:21:22;101858.84;;;7.28;73.40
63088;BME280;49173;43.164;27.786;2022-12-18T07:23:48;101872.88;;;7.41;73.36
63088;BME280;49173;43.164;27.786;2022-12-18T07:26:21;101881.63;;;7.49;72.46
63088;BME280;49173;43.164;27.786;2022-12-18T07:28:48;101882.72;;;7.37;71.42
63088;BME280;49173;43.164;27.786;2022-12-18T07:31:16;101887.13;;;7.41;71.01
63088;BME280;49173;43.164;27.786;2022-12-18T07:33:43;101879.25;;;7.32;71.72
63088;BME280;49173;43.164;27.786;2022-12-18T07:36:10;101879.38;;;7.25;73.01
63088;BME280;49173;43.164;27.786;2022-12-18T07:38:36;101883.03;;;7.21;73.21
63088;BME280;49173;43.164;27.786;2022-12-18T07:41:07;101879.56;;;7.14;72.82
63088;BME280;49173;43.164;27.786;2022-12-18T07:43:34;101894.63;;;7.18;73.91
63088;BME280;49173;43.164;27.786;2022-12-18T07:46:00;101897.41;;;7.12;73.46
63088;BME280;49173;43.164;27.786;2022-12-18T07:48:25;101898.97;;;7.24;74.17
63088;BME280;49173;43.164;27.786;2022-12-18T07:50:51;101896.19;;;7.31;74.87
63088;BME280;49173;43.164;27.786;2022-12-18T07:53:17;101897.19;;;7.24;73.00
63088;BME280;49173;43.164;27.786;2022-12-18T07:55:43;101901.75;;;7.19;73.84
63088;BME280;49173;43.164;27.786;2022-12-18T07:58:09;101905.28;;;7.20;73.94
63088;BME280;49173;43.164;27.786;2022-12-18T08:00:35;101913.31;;;7.20;74.04
63088;BME280;49173;43.164;27.786;2022-12-18T08:03:01;101917.88;;;7.10;73.89
63088;BME280;49173;43.164;27.786;2022-12-18T08:05:27;101920.63;;;7.07;73.37
63088;BME280;49173;43.164;27.786;2022-12-18T08:07:53;101928.47;;;7.16;74.79
63088;BME280;49173;43.164;27.786;2022-12-18T08:10:20;101926.72;;;7.15;74.27
63088;BME280;49173;43.164;27.786;2022-12-18T08:12:54;101930.22;;;7.20;74.27
63088;BME280;49173;43.164;27.786;2022-12-18T08:15:21;101930.19;;;7.22;74.73
63088;BME280;49173;43.164;27.786;2022-12-18T08:17:49;101921.03;;;7.36;74.71
63088;BME280;49173;43.164;27.786;2022-12-18T08:20:16;101924.38;;;7.49;75.06
63088;BME280;49173;43.164;27.786;2022-12-18T08:22:44;101927.59;;;7.68;74.96
63088;BME280;49173;43.164;27.786;2022-12-18T08:25:10;101935.44;;;7.79;72.75
63088;BME280;49173;43.164;27.786;2022-12-18T08:27:36;101933.75;;;7.73;73.09
63088;BME280;49173;43.164;27.786;2022-12-18T08:30:03;101938.03;;;7.83;73.65
63088;BME280;49173;43.164;27.786;2022-12-18T08:32:32;101942.38;;;7.87;72.21
63088;BME280;49173;43.164;27.786;2022-12-18T08:34:58;101942.34;;;7.89;72.33
63088;BME280;49173;43.164;27.786;2022-12-18T08:37:24;101941.41;;;7.93;72.23
63088;BME280;49173;43.164;27.786;2022-12-18T08:39:50;101928.88;;;7.96;72.67
63088;BME280;49173;43.164;27.786;2022-12-18T08:42:38;101936.66;;;8.07;72.84
63088;BME280;49173;43.164;27.786;2022-12-18T08:45:31;101934.69;;;8.17;72.34
63088;BME280;49173;43.164;27.786;2022-12-18T08:47:57;101924.78;;;8.22;71.63
63088;BME280;49173;43.164;27.786;2022-12-18T08:50:23;101937.19;;;8.24;72.01
63088;BME280;49173;43.164;27.786;2022-12-18T08:52:48;101934.53;;;8.26;71.26
63088;BME280;49173;43.164;27.786;2022-12-18T08:55:14;101930.00;;;8.28;70.85
63088;BME280;49173;43.164;27.786;2022-12-18T08:57:40;101933.53;;;8.30;71.65
63088;BME280;49173;43.164;27.786;2022-12-18T09:00:06;101923.66;;;8.35;71.10
63088;BME280;49173;43.164;27.786;2022-12-18T09:02:34;101920.97;;;8.34;70.67
63088;BME280;49173;43.164;27.786;2022-12-18T09:05:00;101917.47;;;8.30;70.36
63088;BME280;49173;43.164;27.786;2022-12-18T09:07:25;101924.84;;;8.19;70.33
63088;BME280;49173;43.164;27.786;2022-12-18T09:09:54;101931.25;;;8.12;70.91
63088;BME280;49173;43.164;27.786;2022-12-18T09:12:20;101926.81;;;8.09;70.79
63088;BME280;49173;43.164;27.786;2022-12-18T09:14:46;101941.16;;;8.05;70.71
63088;BME280;49173;43.164;27.786;2022-12-18T09:17:12;101926.03;;;8.03;70.88
63088;BME280;49173;43.164;27.786;2022-12-18T09:19:37;101932.22;;;8.06;70.93
63088;BME280;49173;43.164;27.786;2022-12-18T09:22:03;101921.38;;;8.14;70.91
63088;BME280;49173;43.164;27.786;2022-12-18T09:24:29;101933.78;;;8.18;71.26
63088;BME280;49173;43.164;27.786;2022-12-18T09:26:56;101941.66;;;8.25;70.97
63088;BME280;49173;43.164;27.786;2022-12-18T09:29:22;101938.00;;;8.30;70.58
63088;BME280;49173;43.164;27.786;2022-12-18T09:31:48;101936.19;;;8.32;69.99
63088;BME280;49173;43.164;27.786;2022-12-18T09:34:15;101934.47;;;8.27;70.18
63088;BME280;49173;43.164;27.786;2022-12-18T09:36:42;101924.63;;;8.30;70.91
63088;BME280;49173;43.164;27.786;2022-12-18T09:39:08;101929.09;;;8.29;71.11
63088;BME280;49173;43.164;27.786;2022-12-18T09:44:36;101922.69;;;8.39;70.64
63088;BME280;49173;43.164;27.786;2022-12-18T09:47:35;101918.31;;;8.35;69.26
63088;BME280;49173;43.164;27.786;2022-12-18T09:50:06;101927.34;;;8.28;70.70
63088;BME280;49173;43.164;27.786;2022-12-18T09:52:45;101912.13;;;8.30;70.14
63088;BME280;49173;43.164;27.786;2022-12-18T09:55:37;101916.47;;;8.37;70.92
63088;BME280;49173;43.164;27.786;2022-12-18T10:00:39;101911.94;;;8.41;70.02
63088;BME280;49173;43.164;27.786;2022-12-18T10:03:10;101907.53;;;8.40;69.56
63088;BME280;49173;43.164;27.786;2022-12-18T10:08:34;101909.09;;;8.48;70.48
63088;BME280;49173;43.164;27.786;2022-12-18T10:19:39;101899.25;;;8.50;69.43
63088;BME280;49173;43.164;27.786;2022-12-18T10:24:59;101904.38;;;8.60;70.17
63088;BME280;49173;43.164;27.786;2022-12-18T10:27:28;101909.69;;;8.63;70.35
63088;BME280;49173;43.164;27.786;2022-12-18T10:29:54;101911.34;;;8.67;69.82
63088;BME280;49173;43.164;27.786;2022-12-18T10:32:25;101912.22;;;8.69;69.58
63088;BME280;49173;43.164;27.786;2022-12-18T10:34:53;101906.75;;;8.75;69.81
63088;BME280;49173;43.164;27.786;2022-12-18T10:37:23;101912.09;;;8.73;69.39
63088;BME280;49173;43.164;27.786;2022-12-18T10:42:33;101916.59;;;8.73;69.12
63088;BME280;49173;43.164;27.786;2022-12-18T10:45:09;101925.53;;;8.72;69.31
63088;BME280;49173;43.164;27.786;2022-12-18T10:47:35;101937.81;;;8.80;70.03
63088;BME280;49173;43.164;27.786;2022-12-18T10:50:01;101933.16;;;8.90;70.27
63088;BME280;49173;43.164;27.786;2022-12-18T10:52:27;101931.19;;;8.98;70.73
63088;BME280;49173;43.164;27.786;2022-12-18T10:55:02;101927.50;;;9.04;69.94
63088;BME280;49173;43.164;27.786;2022-12-18T10:57:29;101933.69;;;9.06;69.47
63088;BME280;49173;43.164;27.786;2022-12-18T10:59:58;101930.16;;;9.04;68.51
63088;BME280;49173;43.164;27.786;2022-12-18T11:02:27;101939.25;;;8.97;68.15
63088;BME280;49173;43.164;27.786;2022-12-18T11:04:54;101949.44;;;8.81;68.39
63088;BME280;49173;43.164;27.786;2022-12-18T11:07:19;101950.63;;;8.66;69.82
63088;BME280;49173;43.164;27.786;2022-12-18T11:10:00;101952.59;;;8.58;69.29
63088;BME280;49173;43.164;27.786;2022-12-18T11:12:28;101955.56;;;8.46;70.67
63088;BME280;49173;43.164;27.786;2022-12-18T11:14:55;101951.25;;;8.37;71.06
63088;BME280;49173;43.164;27.786;2022-12-18T11:19:56;101945.50;;;8.12;72.68
63088;BME280;49173;43.164;27.786;2022-12-18T11:22:28;101951.78;;;8.08;72.96
63088;BME280;49173;43.164;27.786;2022-12-18T11:27:37;101937.72;;;7.98;73.51
63088;BME280;49173;43.164;27.786;2022-12-18T11:33:05;101950.25;;;7.96;72.09
63088;BME280;49173;43.164;27.786;2022-12-18T11:40:43;101946.44;;;7.60;73.97
63088;BME280;49173;43.164;27.786;2022-12-18T11:43:21;101950.22;;;7.49;73.90
63088;BME280;49173;43.164;27.786;2022-12-18T11:45:58;101953.00;;;7.39;75.07
63088;BME280;49173;43.164;27.786;2022-12-18T11:48:38;101947.78;;;7.35;74.45
63088;BME280;49173;43.164;27.786;2022-12-18T11:51:12;101946.88;;;7.33;75.10
63088;BME280;49173;43.164;27.786;2022-12-18T11:53:40;101947.00;;;7.27;75.50
63088;BME280;49173;43.164;27.786;2022-12-18T11:58:57;101957.53;;;7.36;77.12
63088;BME280;49173;43.164;27.786;2022-12-18T12:15:48;101997.47;;;7.43;76.75
63088;BME280;49173;43.164;27.786;2022-12-18T12:18:28;101994.50;;;7.63;78.61
63088;BME280;49173;43.164;27.786;2022-12-18T12:21:11;102004.19;;;7.69;76.79
63088;BME280;49173;43.164;27.786;2022-12-18T12:26:35;102000.75;;;7.62;75.75
63088;BME280;49173;43.164;27.786;2022-12-18T12:32:01;102003.53;;;7.53;76.31
63088;BME280;49173;43.164;27.786;2022-12-18T12:40:04;102022.19;;;7.58;76.36
63088;BME280;49173;43.164;27.786;2022-12-18T12:42:43;102015.03;;;7.61;76.70
63088;BME280;49173;43.164;27.786;2022-12-18T12:45:40;102038.03;;;7.70;76.50
63088;BME280;49173;43.164;27.786;2022-12-18T12:48:14;102036.38;;;7.63;76.24
63088;BME280;49173;43.164;27.786;2022-12-18T12:50:42;102046.97;;;7.69;77.23
63088;BME280;49173;43.164;27.786;2022-12-18T12:53:17;102042.41;;;7.76;76.75
63088;BME280;49173;43.164;27.786;2022-12-18T12:55:46;102041.63;;;7.69;75.60
63088;BME280;49173;43.164;27.786;2022-12-18T12:58:22;102039.06;;;7.60;75.89
63088;BME280;49173;43.164;27.786;2022-12-18T13:06:45;102044.47;;;7.57;76.21
63088;BME280;49173;43.164;27.786;2022-12-18T13:09:14;102047.94;;;7.63;77.41
63088;BME280;49173;43.164;27.786;2022-12-18T13:11:42;102049.78;;;7.58;77.01
63088;BME280;49173;43.164;27.786;2022-12-18T13:14:32;102047.34;;;7.43;77.17
63088;BME280;49173;43.164;27.786;2022-12-18T13:20:14;102064.34;;;7.37;78.04
63088;BME280;49173;43.164;27.786;2022-12-18T13:22:46;102062.66;;;7.33;78.19
63088;BME280;49173;43.164;27.786;2022-12-18T13:25:32;102071.53;;;7.32;77.48
63088;BME280;49173;43.164;27.786;2022-12-18T13:28:06;102073.28;;;7.35;77.55
63088;BME280;49173;43.164;27.786;2022-12-18T13:35:58;102069.94;;;7.21;77.40
63088;BME280;49173;43.164;27.786;2022-12-18T13:40:54;102089.50;;;7.21;77.02
63088;BME280;49173;43.164;27.786;2022-12-18T13:46:01;102087.66;;;7.26;74.08
63088;BME280;49173;43.164;27.786;2022-12-18T13:48:32;102092.25;;;7.15;70.38
63088;BME280;49173;43.164;27.786;2022-12-18T13:54:41;102111.06;;;7.04;67.44
63088;BME280;49173;43.164;27.786;2022-12-18T13:56:44;102122.88;;;6.83;66.61
63088;BME280;49173;43.164;27.786;2022-12-18T13:59:22;102126.47;;;6.82;65.52
63088;BME280;49173;43.164;27.786;2022-12-18T14:01:52;102127.41;;;6.78;64.68
63088;BME280;49173;43.164;27.786;2022-12-18T14:04:19;102123.91;;;6.73;64.59
63088;BME280;49173;43.164;27.786;2022-12-18T14:06:47;102122.94;;;6.80;65.85
63088;BME280;49173;43.164;27.786;2022-12-18T14:09:27;102130.09;;;6.77;65.32
63088;BME280;49173;43.164;27.786;2022-12-18T14:11:55;102122.97;;;6.77;65.35
63088;BME280;49173;43.164;27.786;2022-12-18T14:14:46;102122.13;;;6.74;65.23
63088;BME280;49173;43.164;27.786;2022-12-18T14:17:14;102128.19;;;6.86;65.29
63088;BME280;49173;43.164;27.786;2022-12-18T14:19:49;102132.69;;;6.83;65.10
63088;BME280;49173;43.164;27.786;2022-12-18T14:22:18;102139.72;;;6.90;65.24
63088;BME280;49173;43.164;27.786;2022-12-18T14:24:45;102149.38;;;7.02;66.64
63088;BME280;49173;43.164;27.786;2022-12-18T14:27:21;102159.91;;;7.15;66.32
63088;BME280;49173;43.164;27.786;2022-12-18T14:29:49;102163.38;;;7.22;65.71
63088;BME280;49173;43.164;27.786;2022-12-18T14:32:17;102173.03;;;7.34;65.95
63088;BME280;49173;43.164;27.786;2022-12-18T14:34:45;102165.00;;;7.35;65.73
63088;BME280;49173;43.164;27.786;2022-12-18T14:37:13;102169.28;;;7.46;65.73
63088;BME280;49173;43.164;27.786;2022-12-18T14:39:39;102167.47;;;7.49;66.00
63088;BME280;49173;43.164;27.786;2022-12-18T14:42:05;102156.72;;;7.54;67.60
63088;BME280;49173;43.164;27.786;2022-12-18T14:44:31;102168.44;;;7.43;67.57
63088;BME280;49173;43.164;27.786;2022-12-18T14:46:57;102168.66;;;7.27;65.88
63088;BME280;49173;43.164;27.786;2022-12-18T14:51:56;102181.16;;;7.23;67.63